Time;durP1;ratioP1;P1;durP2;ratioP2;P2;SDS_P1;SDS_P2;PMS_P1;PMS_P2;Temp;Humidity;BMP_temperature;BMP_pressure;BME280_temperature;BME280_humidity;BME280_pressure;Samples;Min_cycle;Max_cycle;Signal;HPM_P1;HPM_P2
2022/07/17 00:01:09;;;;;;;5.40;2.33;;;29.10;96.70;;;;;;4868762;29;20136;-76
2022/07/17 00:03:37;;;;;;;3.80;2.30;;;29.10;96.70;;;;;;4870446;29;20404;-75
2022/07/17 00:06:07;;;;;;;3.35;1.83;;;29.10;96.70;;;;;;4869675;29;20049;-75
2022/07/17 00:08:35;;;;;;;2.60;2.13;;;29.10;96.70;;;;;;4870610;29;20124;-76
2022/07/17 00:11:05;;;;;;;4.35;1.80;;;29.10;96.70;;;;;;4870803;29;20136;-76
2022/07/17 00:13:34;;;;;;;4.38;2.00;;;29.00;96.70;;;;;;4868666;29;20496;-75
2022/07/17 00:16:02;;;;;;;4.40;2.30;;;29.10;96.70;;;;;;4870698;29;20084;-75
2022/07/17 00:18:31;;;;;;;2.63;2.05;;;28.90;96.70;;;;;;4878208;29;20056;-75
2022/07/17 00:20:59;;;;;;;3.22;2.30;;;28.80;96.70;;;;;;4879002;29;20171;-76
2022/07/17 00:23:28;;;;;;;2.45;2.03;;;28.80;96.70;;;;;;4868557;29;20095;-76
2022/07/17 00:25:56;;;;;;;2.97;2.17;;;28.70;96.70;;;;;;4869069;29;20162;-76
2022/07/17 00:28:26;;;;;;;2.17;1.83;;;28.70;96.70;;;;;;4867990;29;20064;-77
2022/07/17 00:30:55;;;;;;;5.15;2.28;;;28.70;96.70;;;;;;4875291;29;20041;-77
2022/07/17 00:33:23;;;;;;;3.33;2.08;;;28.70;96.70;;;;;;4883946;29;20156;-77
2022/07/17 00:35:51;;;;;;;3.15;1.95;;;28.80;96.70;;;;;;4870989;29;20158;-77
2022/07/17 00:38:20;;;;;;;2.33;2.03;;;28.80;96.70;;;;;;4869995;29;20091;-75
2022/07/17 00:40:49;;;;;;;2.67;1.92;;;28.70;96.70;;;;;;4884181;29;20068;-75
2022/07/17 00:43:17;;;;;;;2.80;2.30;;;28.70;96.70;;;;;;4867802;29;20542;-75
2022/07/17 00:45:54;;;;;;;5.60;2.22;;;28.60;96.70;;;;;;4878514;29;20049;-75
2022/07/17 00:48:23;;;;;;;4.38;2.13;;;28.60;96.70;;;;;;4868426;29;20055;-76
2022/07/17 00:50:52;;;;;;;2.95;2.28;;;28.60;96.70;;;;;;4869324;29;20495;-75
2022/07/17 00:53:21;;;;;;;2.35;1.98;;;28.50;96.70;;;;;;4868404;29;20052;-75
2022/07/17 00:55:51;;;;;;;3.20;2.20;;;28.60;96.70;;;;;;4868619;29;20622;-75
2022/07/17 00:58:20;;;;;;;4.03;2.30;;;28.60;96.70;;;;;;4868120;29;20045;-75
2022/07/17 01:00:52;;;;;;;3.83;2.40;;;28.50;96.70;;;;;;4868320;29;20049;-75
2022/07/17 01:03:23;;;;;;;4.28;2.10;;;28.50;96.70;;;;;;4864878;29;20455;-75
2022/07/17 01:05:51;;;;;;;5.00;1.90;;;28.40;96.70;;;;;;4870045;29;20044;-76
2022/07/17 01:08:20;;;;;;;2.63;2.20;;;28.40;96.70;;;;;;4871377;29;20056;-76
2022/07/17 01:10:48;;;;;;;2.67;1.92;;;28.40;96.70;;;;;;4886824;29;20067;-75
2022/07/17 01:13:18;;;;;;;2.45;2.08;;;28.40;96.70;;;;;;4872516;29;20457;-75
2022/07/17 01:15:47;;;;;;;2.70;1.67;;;28.40;96.70;;;;;;4871546;29;20718;-75
2022/07/17 01:18:17;;;;;;;3.15;2.17;;;28.30;96.70;;;;;;4868748;29;20045;-75
2022/07/17 01:20:47;;;;;;;3.17;2.00;;;28.30;96.70;;;;;;4871895;29;20454;-75
2022/07/17 01:23:18;;;;;;;1.83;1.70;;;28.30;96.70;;;;;;4887054;29;20136;-75
2022/07/17 01:25:47;;;;;;;2.05;1.60;;;28.20;96.70;;;;;;4870957;29;20049;-75
2022/07/17 01:28:15;;;;;;;2.97;2.05;;;28.20;96.70;;;;;;4870646;29;20052;-75
2022/07/17 01:30:48;;;;;;;3.92;1.98;;;28.10;96.70;;;;;;4871599;29;20072;-75
2022/07/17 01:33:18;;;;;;;2.33;2.08;;;28.20;96.70;;;;;;4886759;29;20048;-75
2022/07/17 01:35:48;;;;;;;2.05;1.60;;;28.20;96.70;;;;;;4866937;29;20234;-76
2022/07/17 01:38:18;;;;;;;3.33;1.98;;;28.20;96.70;;;;;;4873894;29;20765;-76
2022/07/17 01:40:46;;;;;;;4.53;1.92;;;28.10;96.70;;;;;;4870403;29;20127;-75
2022/07/17 01:43:14;;;;;;;2.10;1.88;;;28.10;96.70;;;;;;4854737;29;20041;-76
2022/07/17 01:45:42;;;;;;;3.10;1.98;;;27.90;96.70;;;;;;4870281;29;20071;-75
2022/07/17 01:48:10;;;;;;;3.45;1.80;;;27.70;96.70;;;;;;4873597;29;20048;-76
2022/07/17 01:50:38;;;;;;;2.00;1.80;;;27.80;96.70;;;;;;4871492;29;20064;-76
2022/07/17 01:53:06;;;;;;;4.38;2.08;;;27.90;96.70;;;;;;4872244;29;20128;-75
2022/07/17 01:55:36;;;;;;;2.95;2.10;;;27.90;96.70;;;;;;4873228;29;20052;-75
2022/07/17 01:58:06;;;;;;;3.70;1.83;;;27.80;96.70;;;;;;4871577;29;20156;-76
2022/07/17 02:00:34;;;;;;;3.70;1.77;;;27.90;96.70;;;;;;4885597;29;20131;-76
2022/07/17 02:03:02;;;;;;;3.00;2.03;;;27.90;96.70;;;;;;4871017;29;20052;-76
2022/07/17 02:05:30;;;;;;;2.72;2.03;;;27.80;96.70;;;;;;4886205;29;20152;-76
2022/07/17 02:07:58;;;;;;;3.50;2.40;;;27.80;96.70;;;;;;4872384;29;20156;-75
2022/07/17 02:10:27;;;;;;;4.40;2.00;;;27.80;96.70;;;;;;4870403;29;20057;-76
2022/07/17 02:12:57;;;;;;;3.40;1.75;;;27.70;96.70;;;;;;4870180;29;20049;-76
2022/07/17 02:15:25;;;;;;;2.30;2.00;;;27.70;96.70;;;;;;4871193;29;20061;-76
2022/07/17 02:17:54;;;;;;;3.58;2.28;;;27.70;96.70;;;;;;4854552;29;20045;-76
2022/07/17 02:20:22;;;;;;;3.47;2.00;;;27.80;96.70;;;;;;4871897;29;20056;-75
2022/07/17 02:22:50;;;;;;;2.40;2.00;;;27.80;96.70;;;;;;4870138;29;20033;-76
2022/07/17 02:25:19;;;;;;;2.03;1.80;;;27.70;96.70;;;;;;4871689;29;20507;-75
2022/07/17 02:27:47;;;;;;;5.03;2.17;;;27.60;96.70;;;;;;4865642;29;20045;-75
2022/07/17 02:30:18;;;;;;;1.92;1.80;;;27.50;96.70;;;;;;4871225;29;20129;-75
2022/07/17 02:32:46;;;;;;;3.05;2.50;;;27.60;96.70;;;;;;4871412;29;20049;-76
2022/07/17 02:35:16;;;;;;;2.72;1.88;;;27.60;96.70;;;;;;4871763;29;20122;-76
2022/07/17 02:37:46;;;;;;;5.07;1.83;;;27.70;96.70;;;;;;4854692;29;20053;-75
2022/07/17 02:40:14;;;;;;;1.70;1.60;;;27.60;96.70;;;;;;4886144;29;20049;-75
2022/07/17 02:42:43;;;;;;;1.98;1.77;;;27.60;96.70;;;;;;4870687;29;20052;-75
2022/07/17 02:45:11;;;;;;;2.67;1.90;;;27.50;96.70;;;;;;4867979;29;20076;-75
2022/07/17 02:47:41;;;;;;;4.70;1.83;;;27.50;96.70;;;;;;4869474;29;20417;-76
2022/07/17 02:50:10;;;;;;;4.13;2.10;;;27.40;96.70;;;;;;4871737;29;20056;-76
2022/07/17 02:52:38;;;;;;;3.75;2.15;;;27.20;96.70;;;;;;4868194;29;20049;-76
2022/07/17 02:55:08;;;;;;;3.03;2.40;;;27.10;96.70;;;;;;4871855;29;20909;-75
2022/07/17 02:57:36;;;;;;;2.80;2.10;;;27.10;96.70;;;;;;4855455;29;20052;-76
2022/07/17 03:00:07;;;;;;;4.18;2.05;;;27.10;96.70;;;;;;4885665;29;20049;-75
2022/07/17 03:02:35;;;;;;;2.45;1.88;;;27.10;96.70;;;;;;4868909;29;20049;-76
2022/07/17 03:05:06;;;;;;;2.85;2.20;;;27.20;96.70;;;;;;4877297;29;20180;-76
2022/07/17 03:07:34;;;;;;;3.65;2.17;;;27.30;96.70;;;;;;4868887;29;20179;-75
2022/07/17 03:10:03;;;;;;;6.97;2.55;;;27.20;96.70;;;;;;4869887;29;20041;-75
2022/07/17 03:12:31;;;;;;;2.65;2.10;;;27.20;96.70;;;;;;4870142;29;20061;-75
2022/07/17 03:14:59;;;;;;;2.20;2.00;;;27.10;96.70;;;;;;4885473;29;20076;-75
2022/07/17 03:17:27;;;;;;;3.92;2.20;;;27.10;96.70;;;;;;4870002;29;20109;-75
2022/07/17 03:19:55;;;;;;;2.75;2.20;;;27.00;96.70;;;;;;4871058;29;20136;-75
2022/07/17 03:22:25;;;;;;;3.65;2.03;;;26.90;96.70;;;;;;4869680;29;20501;-75
2022/07/17 03:24:54;;;;;;;3.25;2.17;;;26.90;96.70;;;;;;4869478;29;20060;-75
2022/07/17 03:27:22;;;;;;;2.50;1.90;;;26.90;96.70;;;;;;4869893;29;20053;-75
2022/07/17 03:29:50;;;;;;;2.90;2.00;;;27.10;96.70;;;;;;4866803;29;20488;-75
2022/07/17 03:32:18;;;;;;;2.53;2.30;;;27.10;96.70;;;;;;4866374;29;20073;-75
2022/07/17 03:34:47;;;;;;;3.50;2.17;;;26.90;96.70;;;;;;4867047;29;20054;-75
2022/07/17 03:37:15;;;;;;;3.85;2.30;;;26.80;96.70;;;;;;4868579;29;20136;-75
2022/07/17 03:39:45;;;;;;;2.03;1.85;;;26.80;96.70;;;;;;4870093;29;20075;-75
2022/07/17 03:42:14;;;;;;;2.55;2.00;;;26.80;96.70;;;;;;4866770;29;20524;-75
2022/07/17 03:44:42;;;;;;;2.70;2.38;;;26.80;96.70;;;;;;4866301;29;20109;-75
2022/07/17 03:47:10;;;;;;;2.05;1.95;;;26.80;96.70;;;;;;4872041;29;20068;-75
2022/07/17 03:49:39;;;;;;;3.50;2.03;;;26.80;96.70;;;;;;4880879;29;20041;-75
2022/07/17 03:52:10;;;;;;;4.38;2.42;;;26.90;96.70;;;;;;4867334;29;20445;-75
2022/07/17 03:54:38;;;;;;;5.53;1.95;;;26.90;96.70;;;;;;4869668;29;20045;-76
2022/07/17 03:57:10;;;;;;;2.53;1.95;;;26.90;96.70;;;;;;4871336;29;20049;-76
2022/07/17 03:59:38;;;;;;;2.33;2.13;;;26.80;96.70;;;;;;4871850;29;20075;-75
2022/07/17 04:02:06;;;;;;;3.25;2.25;;;26.80;96.70;;;;;;4868841;29;20164;-76
2022/07/17 04:04:35;;;;;;;4.63;2.13;;;26.60;96.70;;;;;;4867950;29;20049;-75
2022/07/17 04:07:03;;;;;;;3.10;2.08;;;26.70;96.70;;;;;;4869140;29;20069;-75
2022/07/17 04:09:32;;;;;;;4.75;1.95;;;26.80;96.70;;;;;;4873103;29;20052;-76
2022/07/17 04:11:59;;;;;;;2.70;2.25;;;26.80;96.70;;;;;;4869816;29;20053;-75
2022/07/17 04:14:29;;;;;;;4.13;2.35;;;26.90;96.70;;;;;;4872327;29;20063;-75
2022/07/17 04:16:57;;;;;;;3.10;2.45;;;26.80;96.70;;;;;;4870561;29;20171;-75
2022/07/17 04:19:25;;;;;;;3.25;2.10;;;26.70;96.70;;;;;;4871428;29;20086;-74
2022/07/17 04:21:54;;;;;;;3.00;2.50;;;26.70;96.70;;;;;;4871121;29;20508;-74
2022/07/17 04:24:22;;;;;;;3.08;2.20;;;26.80;96.70;;;;;;4870124;29;20538;-76
2022/07/17 04:26:50;;;;;;;3.33;2.10;;;26.80;96.70;;;;;;4869276;29;20085;-75
2022/07/17 04:29:18;;;;;;;5.03;2.72;;;26.80;96.70;;;;;;4870169;29;20535;-75
2022/07/17 04:31:48;;;;;;;3.83;2.10;;;26.80;96.70;;;;;;4884581;29;20412;-75
2022/07/17 04:34:17;;;;;;;3.20;2.50;;;26.70;96.70;;;;;;4868656;29;20053;-77
2022/07/17 04:36:45;;;;;;;2.55;2.35;;;26.80;96.70;;;;;;4869304;29;20319;-75
2022/07/17 04:39:13;;;;;;;3.60;2.55;;;26.80;96.70;;;;;;4869635;29;20189;-76
2022/07/17 04:41:42;;;;;;;4.32;2.17;;;26.70;96.70;;;;;;4855457;29;20064;-77
2022/07/17 04:44:10;;;;;;;2.95;2.22;;;26.70;96.70;;;;;;4871396;29;20670;-76
2022/07/17 04:46:38;;;;;;;4.38;2.60;;;26.70;96.70;;;;;;4857266;29;20419;-76
2022/07/17 04:49:08;;;;;;;3.38;2.60;;;26.70;96.70;;;;;;4873196;29;20056;-75
2022/07/17 04:51:37;;;;;;;3.63;2.58;;;26.50;96.70;;;;;;4872708;29;20041;-76
2022/07/17 04:54:05;;;;;;;2.63;2.42;;;26.60;96.70;;;;;;4871508;29;20049;-75
2022/07/17 04:56:33;;;;;;;5.03;2.97;;;26.80;96.70;;;;;;4869224;29;20041;-76
2022/07/17 04:59:02;;;;;;;4.07;2.63;;;26.80;96.70;;;;;;4873161;29;20084;-77
2022/07/17 05:01:30;;;;;;;3.92;2.63;;;26.80;96.70;;;;;;4872395;29;20156;-77
2022/07/17 05:04:02;;;;;;;3.65;2.35;;;26.70;96.70;;;;;;4874967;29;20049;-76
2022/07/17 05:06:32;;;;;;;3.55;2.47;;;26.70;96.70;;;;;;4871006;29;20072;-77
2022/07/17 05:09:00;;;;;;;3.83;2.78;;;26.60;96.70;;;;;;4869512;29;20105;-76
2022/07/17 05:11:28;;;;;;;3.60;2.33;;;26.70;96.70;;;;;;4871268;29;20055;-77
2022/07/17 05:13:56;;;;;;;5.15;2.40;;;26.80;96.70;;;;;;4873350;29;20045;-77
2022/07/17 05:16:25;;;;;;;2.40;2.20;;;26.80;96.70;;;;;;4872560;29;20097;-74
2022/07/17 05:18:53;;;;;;;3.10;2.45;;;26.80;96.70;;;;;;4857004;29;20041;-75
2022/07/17 05:21:21;;;;;;;3.00;2.72;;;26.70;96.70;;;;;;4871177;29;20060;-76
2022/07/17 05:23:51;;;;;;;4.22;2.65;;;26.70;96.70;;;;;;4872051;29;20691;-76
2022/07/17 05:26:19;;;;;;;2.75;2.33;;;26.80;96.70;;;;;;4872063;29;20048;-76
2022/07/17 05:28:46;;;;;;;3.95;2.83;;;26.80;96.70;;;;;;4872116;29;20057;-76
2022/07/17 05:31:14;;;;;;;5.25;2.58;;;26.70;96.70;;;;;;4872697;29;20048;-77
2022/07/17 05:33:42;;;;;;;3.25;2.83;;;26.60;96.70;;;;;;4856001;29;20056;-77
2022/07/17 05:36:10;;;;;;;3.55;2.72;;;26.60;96.70;;;;;;4872539;29;20051;-77
2022/07/17 05:38:38;;;;;;;4.45;2.20;;;26.70;96.70;;;;;;4873074;29;20048;-76
2022/07/17 05:41:07;;;;;;;4.97;2.80;;;26.80;96.70;;;;;;4886412;29;20157;-76
2022/07/17 05:43:35;;;;;;;5.05;2.72;;;26.70;96.70;;;;;;4886730;29;20128;-76
2022/07/17 05:46:03;;;;;;;2.90;2.70;;;26.80;96.70;;;;;;4872394;29;20057;-76
2022/07/17 05:48:31;;;;;;;3.00;2.70;;;26.80;96.70;;;;;;4870793;29;20242;-76
2022/07/17 05:51:00;;;;;;;7.78;3.03;;;26.90;96.70;;;;;;4874939;29;20053;-76
2022/07/17 05:53:31;;;;;;;4.43;2.90;;;26.70;96.70;;;;;;4871892;29;20056;-76
2022/07/17 05:55:59;;;;;;;3.50;2.50;;;26.60;96.70;;;;;;4870228;29;20440;-76
2022/07/17 05:58:28;;;;;;;4.68;2.75;;;26.60;96.70;;;;;;4873053;29;20045;-76
2022/07/17 06:00:56;;;;;;;3.67;2.83;;;26.70;96.70;;;;;;4872532;29;20056;-76
2022/07/17 06:03:24;;;;;;;4.20;2.65;;;26.80;96.70;;;;;;4872555;29;20134;-76
2022/07/17 06:05:52;;;;;;;2.75;2.50;;;26.90;96.70;;;;;;4870165;29;20057;-76
2022/07/17 06:08:19;;;;;;;3.17;2.75;;;27.00;96.70;;;;;;4872560;29;20067;-76
2022/07/17 06:10:47;;;;;;;3.35;3.00;;;27.00;96.70;;;;;;4871743;29;20041;-76
2022/07/17 06:13:15;;;;;;;4.75;3.00;;;27.10;96.70;;;;;;4871551;29;20045;-75
2022/07/17 06:15:44;;;;;;;4.45;2.90;;;27.10;96.70;;;;;;4870915;29;20060;-76
2022/07/17 06:18:12;;;;;;;4.20;2.80;;;27.20;96.70;;;;;;4885761;29;20049;-75
2022/07/17 06:20:40;;;;;;;4.03;3.10;;;27.20;96.70;;;;;;4872640;29;20052;-76
2022/07/17 06:23:07;;;;;;;4.10;3.05;;;27.20;96.70;;;;;;4869844;29;20091;-76
2022/07/17 06:25:35;;;;;;;4.45;2.80;;;27.20;96.70;;;;;;4871781;29;20096;-75
2022/07/17 06:28:03;;;;;;;4.15;2.80;;;27.30;96.70;;;;;;4870408;29;20052;-76
2022/07/17 06:30:31;;;;;;;4.35;2.80;;;27.30;96.70;;;;;;4870506;29;20041;-75
2022/07/17 06:33:00;;;;;;;6.47;3.38;;;27.40;96.70;;;;;;4869707;29;20042;-76
2022/07/17 06:35:30;;;;;;;3.75;2.58;;;27.40;96.70;;;;;;4872844;29;20037;-76
2022/07/17 06:37:58;;;;;;;3.33;3.03;;;27.50;96.70;;;;;;4870018;29;20630;-76
2022/07/17 06:40:26;;;;;;;4.35;2.63;;;27.60;96.70;;;;;;4886677;29;20226;-76
2022/07/17 06:42:53;;;;;;;4.82;2.80;;;27.50;96.70;;;;;;4870560;29;20053;-79
2022/07/17 06:45:22;;;;;;;4.20;2.90;;;27.40;96.70;;;;;;4856582;29;20892;-79
2022/07/17 06:47:49;;;;;;;4.45;3.30;;;27.50;96.70;;;;;;4869168;29;20080;-76
2022/07/17 06:50:19;;;;;;;5.10;2.58;;;27.50;96.70;;;;;;4871181;29;20067;-77
2022/07/17 06:52:46;;;;;;;4.63;2.80;;;27.50;96.70;;;;;;4870378;29;20120;-77
2022/07/17 06:55:14;;;;;;;5.82;2.72;;;27.60;96.70;;;;;;4870461;29;20045;-78
2022/07/17 06:57:42;;;;;;;4.10;2.80;;;27.70;96.70;;;;;;4869772;29;20037;-77
2022/07/17 07:00:11;;;;;;;4.40;2.85;;;27.80;96.70;;;;;;4872420;29;20042;-77
2022/07/17 07:02:39;;;;;;;4.80;2.97;;;27.80;96.70;;;;;;4869527;29;20045;-77
2022/07/17 07:05:08;;;;;;;3.72;2.70;;;27.90;96.70;;;;;;4888625;29;20097;-78
2022/07/17 07:07:37;;;;;;;3.38;2.85;;;27.90;96.70;;;;;;4866720;29;20041;-79
2022/07/17 07:10:06;;;;;;;4.15;2.78;;;27.90;96.70;;;;;;4866788;29;20098;-78
2022/07/17 07:12:33;;;;;;;6.05;3.20;;;27.90;96.70;;;;;;4884040;29;20200;-77
2022/07/17 07:15:01;;;;;;;5.43;2.55;;;28.00;96.70;;;;;;4869943;29;20053;-78
2022/07/17 07:17:35;;;;;;;4.20;2.90;;;28.00;96.70;;;;;;4869190;29;20060;-78
2022/07/17 07:20:04;;;;;;;3.45;2.70;;;28.10;96.70;;;;;;4855178;29;20686;-79
2022/07/17 07:22:32;;;;;;;4.85;2.67;;;28.10;96.70;;;;;;4870981;29;20131;-78
2022/07/17 07:25:02;;;;;;;3.20;2.90;;;28.20;96.70;;;;;;4870924;29;20068;-77
2022/07/17 07:27:30;;;;;;;3.63;2.55;;;28.30;96.70;;;;;;4869506;29;20149;-79
2022/07/17 07:29:58;;;;;;;3.92;2.63;;;28.40;96.70;;;;;;4869875;29;20049;-79
2022/07/17 07:32:26;;;;;;;3.35;2.78;;;28.40;96.70;;;;;;4872720;29;20049;-79
2022/07/17 07:34:54;;;;;;;3.65;2.72;;;28.40;96.70;;;;;;4871290;29;20077;-78
2022/07/17 07:37:22;;;;;;;7.40;3.13;;;28.40;96.70;;;;;;4871780;29;20048;-80
2022/07/17 07:39:50;;;;;;;6.28;2.80;;;28.40;96.70;;;;;;4870562;29;20047;-79
2022/07/17 07:42:19;;;;;;;3.95;2.90;;;28.40;96.70;;;;;;4867252;29;20080;-79
2022/07/17 07:44:46;;;;;;;3.28;2.63;;;28.40;96.70;;;;;;4870406;29;20544;-80
2022/07/17 07:47:14;;;;;;;6.40;3.03;;;28.50;96.70;;;;;;4868414;29;20056;-81
2022/07/17 07:49:42;;;;;;;6.18;2.83;;;28.60;96.70;;;;;;4870348;29;20067;-79
2022/07/17 07:52:10;;;;;;;3.85;2.80;;;28.60;96.70;;;;;;4872549;29;20589;-79
2022/07/17 07:54:38;;;;;;;7.20;3.17;;;28.80;96.70;;;;;;4853987;29;20045;-79
2022/07/17 07:57:06;;;;;;;4.72;2.60;;;28.90;96.70;;;;;;4871755;29;20052;-79
2022/07/17 07:59:36;;;;;;;5.38;2.80;;;29.00;96.70;;;;;;4868902;29;20642;-79
2022/07/17 08:02:04;;;;;;;4.25;3.00;;;29.00;96.70;;;;;;4867871;29;20045;-79
2022/07/17 08:04:32;;;;;;;4.28;3.17;;;29.10;96.70;;;;;;4873490;29;20524;-79
2022/07/17 08:07:00;;;;;;;4.10;3.10;;;29.20;96.70;;;;;;4866302;29;20053;-78
2022/07/17 08:09:28;;;;;;;5.32;3.67;;;29.20;96.70;;;;;;4868839;29;20047;-78
2022/07/17 08:11:56;;;;;;;3.40;3.10;;;29.30;96.70;;;;;;4854624;29;20057;-78
2022/07/17 08:14:24;;;;;;;3.47;3.13;;;29.40;96.70;;;;;;4869912;29;20053;-77
2022/07/17 08:16:54;;;;;;;9.25;8.35;;;29.40;96.70;;;;;;4873590;29;20056;-78
2022/07/17 08:19:22;;;;;;;7.88;3.58;;;29.50;96.70;;;;;;4873533;29;20577;-78
2022/07/17 08:21:50;;;;;;;4.82;2.95;;;29.60;96.70;;;;;;4872976;29;20136;-78
2022/07/17 08:24:18;;;;;;;8.65;3.80;;;29.70;96.70;;;;;;4873294;29;20064;-78
2022/07/17 08:26:46;;;;;;;4.70;3.72;;;29.70;96.70;;;;;;4873319;29;20060;-78
2022/07/17 08:29:15;;;;;;;3.58;3.28;;;29.70;96.70;;;;;;4872361;29;20148;-79
2022/07/17 08:32:05;;;;;;;3.85;2.80;;;29.80;96.70;;;;;;4873269;29;20568;-79
2022/07/17 08:34:33;;;;;;;4.50;2.97;;;29.90;96.70;;;;;;4872080;29;20431;-79
2022/07/17 08:37:01;;;;;;;6.43;3.30;;;30.00;96.70;;;;;;4872713;29;20100;-77
2022/07/17 08:39:29;;;;;;;18.80;4.00;;;30.20;96.70;;;;;;4871975;29;20136;-78
2022/07/17 08:41:57;;;;;;;14.20;4.18;;;30.30;96.70;;;;;;4871896;29;20097;-78
2022/07/17 08:44:25;;;;;;;5.60;3.28;;;30.30;96.70;;;;;;4872653;29;20503;-76
2022/07/17 08:46:54;;;;;;;8.77;4.00;;;30.40;96.70;;;;;;4873612;29;20132;-81
2022/07/17 08:49:25;;;;;;;5.30;3.58;;;30.40;96.70;;;;;;4874824;29;20052;-79
2022/07/17 08:51:55;;;;;;;3.55;3.25;;;30.50;96.70;;;;;;4872783;29;20057;-78
2022/07/17 08:54:23;;;;;;;6.85;3.70;;;30.50;96.70;;;;;;4874504;29;20538;-78
2022/07/17 08:56:51;;;;;;;3.75;3.13;;;30.60;96.70;;;;;;4873000;29;20049;-80
2022/07/17 08:59:19;;;;;;;14.35;3.50;;;30.60;96.70;;;;;;4885998;29;20096;-78
2022/07/17 09:01:47;;;;;;;6.80;3.25;;;30.60;96.70;;;;;;4868584;29;20064;-76
2022/07/17 09:04:17;;;;;;;4.97;3.08;;;30.70;96.70;;;;;;4862693;29;20495;-75
2022/07/17 09:06:59;;;;;;;6.95;3.33;;;30.80;96.70;;;;;;4872675;29;20040;-76
2022/07/17 09:09:28;;;;;;;3.67;3.30;;;30.90;96.70;;;;;;4878692;29;20049;-79
2022/07/17 09:11:58;;;;;;;3.53;3.22;;;31.00;96.70;;;;;;4857382;29;20060;-77
2022/07/17 09:14:37;;;;;;;3.53;3.10;;;31.10;96.70;;;;;;4872392;29;20052;-77
2022/07/17 09:17:07;;;;;;;3.95;3.47;;;31.20;96.70;;;;;;4885664;29;20049;-76
2022/07/17 09:19:42;;;;;;;3.63;3.08;;;31.30;96.70;;;;;;4871545;29;20068;-77
2022/07/17 09:22:14;;;;;;;3.72;3.30;;;31.30;96.70;;;;;;4874186;29;20077;-76
2022/07/17 09:24:45;;;;;;;7.05;3.47;;;31.50;96.70;;;;;;4873032;29;20673;-76
2022/07/17 09:27:18;;;;;;;5.30;2.92;;;31.60;96.70;;;;;;4870072;29;20151;-76
2022/07/17 09:29:56;;;;;;;4.53;3.50;;;31.80;96.70;;;;;;4885976;29;20064;-75
2022/07/17 09:32:27;;;;;;;7.53;3.08;;;31.80;96.70;;;;;;4876413;29;20049;-76
2022/07/17 09:34:57;;;;;;;3.20;2.88;;;31.80;96.70;;;;;;4873001;29;20126;-77
2022/07/17 09:37:28;;;;;;;4.95;3.00;;;31.90;96.70;;;;;;4871227;29;20516;-77
2022/07/17 09:39:57;;;;;;;5.68;2.80;;;32.10;96.70;;;;;;4871143;29;20443;-77
2022/07/17 09:42:27;;;;;;;6.55;3.35;;;32.30;96.70;;;;;;4871474;29;20516;-79
2022/07/17 09:45:00;;;;;;;3.58;3.28;;;32.30;96.70;;;;;;4875207;29;20478;-78
2022/07/17 09:47:30;;;;;;;3.30;3.00;;;32.40;96.70;;;;;;4870051;29;20132;-78
2022/07/17 09:50:00;;;;;;;6.22;3.20;;;32.60;96.30;;;;;;4870647;29;20100;-77
2022/07/17 09:52:33;;;;;;;6.10;3.83;;;32.70;94.60;;;;;;4873068;29;20164;-78
2022/07/17 09:55:03;;;;;;;3.15;2.75;;;32.90;94.00;;;;;;4870886;29;20053;-77
2022/07/17 09:57:54;;;;;;;4.57;2.78;;;33.20;92.90;;;;;;4876387;29;20523;-76
2022/07/17 10:00:23;;;;;;;4.03;2.85;;;33.10;93.40;;;;;;4855461;29;20092;-77
2022/07/17 10:02:52;;;;;;;3.10;2.80;;;33.10;93.10;;;;;;4855675;29;20048;-76
2022/07/17 10:05:21;;;;;;;3.92;2.83;;;33.00;92.40;;;;;;4874130;29;20576;-78
2022/07/17 10:07:51;;;;;;;3.28;2.55;;;33.20;92.40;;;;;;4870319;29;20053;-78
2022/07/17 10:10:19;;;;;;;4.28;2.47;;;33.20;90.90;;;;;;4870273;29;20061;-76
2022/07/17 10:12:49;;;;;;;3.72;2.97;;;33.00;91.20;;;;;;4871965;29;20051;-76
2022/07/17 10:15:19;;;;;;;3.58;3.00;;;33.00;91.40;;;;;;4870520;29;20080;-78
2022/07/17 10:17:48;;;;;;;5.85;3.05;;;33.00;90.50;;;;;;4872257;29;20658;-77
2022/07/17 10:20:25;;;;;;;2.97;2.78;;;33.30;90.20;;;;;;4855006;29;20045;-76
2022/07/17 10:22:55;;;;;;;3.50;3.05;;;33.60;89.60;;;;;;4870177;29;20520;-75
2022/07/17 10:25:23;;;;;;;2.97;2.78;;;33.80;89.00;;;;;;4868728;29;20056;-76
2022/07/17 10:27:53;;;;;;;3.40;3.10;;;33.80;89.00;;;;;;4872159;29;20081;-75
2022/07/17 10:30:26;;;;;;;3.03;2.72;;;34.00;89.50;;;;;;4870156;29;20076;-77
2022/07/17 10:32:58;;;;;;;3.25;2.95;;;34.20;88.60;;;;;;4870024;29;20553;-76
2022/07/17 10:35:27;;;;;;;5.10;2.88;;;34.30;88.10;;;;;;4886972;29;20056;-76
2022/07/17 10:38:14;;;;;;;3.28;2.72;;;34.30;88.40;;;;;;4862872;29;20041;-74
2022/07/17 10:40:43;;;;;;;2.85;2.65;;;34.50;88.40;;;;;;4883672;29;20056;-75
2022/07/17 10:43:12;;;;;;;5.15;3.47;;;34.50;87.90;;;;;;4869203;29;20076;-75
2022/07/17 10:45:45;;;;;;;5.82;3.13;;;34.80;88.40;;;;;;4885374;29;20048;-76
2022/07/17 10:48:15;;;;;;;3.22;3.03;;;35.00;86.80;;;;;;4868926;29;20069;-75
2022/07/17 10:50:48;;;;;;;3.60;2.70;;;35.10;86.60;;;;;;4868381;29;20424;-74
2022/07/17 10:53:20;;;;;;;2.95;2.70;;;35.30;87.00;;;;;;4870513;29;20045;-75
2022/07/17 10:55:54;;;;;;;3.00;2.80;;;35.50;86.50;;;;;;4868990;29;20053;-75
2022/07/17 10:58:25;;;;;;;4.90;2.90;;;35.60;86.00;;;;;;4869054;29;20048;-76
2022/07/17 11:01:02;;;;;;;4.00;2.70;;;35.70;85.20;;;;;;4869292;29;20132;-75
2022/07/17 11:03:36;;;;;;;3.88;3.15;;;35.70;84.30;;;;;;4872687;29;20044;-75
2022/07/17 11:06:11;;;;;;;4.30;2.30;;;35.80;84.50;;;;;;4884439;29;20131;-76
2022/07/17 11:08:49;;;;;;;2.28;2.08;;;35.80;82.60;;;;;;4869726;29;20049;-74
2022/07/17 11:11:19;;;;;;;4.03;1.95;;;35.60;81.20;;;;;;4866373;29;20053;-77
2022/07/17 11:14:07;;;;;;;2.70;1.77;;;35.80;81.30;;;;;;4884073;29;20041;-77
2022/07/17 11:16:35;;;;;;;3.03;1.35;;;36.10;79.30;;;;;;4865108;29;20037;-76
2022/07/17 11:19:04;;;;;;;3.97;1.85;;;36.40;77.40;;;;;;4868567;29;20461;-75
2022/07/17 11:21:35;;;;;;;3.40;2.17;;;36.50;76.40;;;;;;4869818;29;20072;-76
2022/07/17 11:24:05;;;;;;;2.88;2.05;;;36.60;77.50;;;;;;4851877;29;20805;-76
2022/07/17 11:26:33;;;;;;;2.60;2.40;;;36.60;78.50;;;;;;4859794;29;20049;-76
2022/07/17 11:29:02;;;;;;;2.65;1.90;;;36.70;78.60;;;;;;4870236;29;20049;-76
2022/07/17 11:31:30;;;;;;;3.35;1.98;;;36.70;76.90;;;;;;4869602;29;20044;-76
2022/07/17 11:34:00;;;;;;;2.10;1.80;;;36.70;77.30;;;;;;4881614;29;20049;-75
2022/07/17 11:36:33;;;;;;;2.92;1.90;;;36.50;76.70;;;;;;4869208;29;20053;-75
2022/07/17 11:39:10;;;;;;;3.15;2.30;;;36.60;78.00;;;;;;4868869;29;20056;-75
2022/07/17 11:41:40;;;;;;;1.67;1.58;;;36.50;78.10;;;;;;4853783;29;20059;-75
2022/07/17 11:44:09;;;;;;;2.00;1.90;;;36.50;76.90;;;;;;4865053;29;20068;-77
2022/07/17 11:46:40;;;;;;;3.58;2.28;;;36.40;76.60;;;;;;4866706;29;20056;-75
2022/07/17 11:49:08;;;;;;;2.28;2.08;;;36.40;78.00;;;;;;4847824;29;20113;-75
2022/07/17 11:51:40;;;;;;;3.25;1.83;;;36.50;77.50;;;;;;4870144;29;20904;-75
2022/07/17 11:54:11;;;;;;;1.83;1.70;;;36.70;76.70;;;;;;4869115;29;20420;-76
2022/07/17 11:56:40;;;;;;;1.98;1.88;;;36.60;76.50;;;;;;4866742;29;20076;-76
2022/07/17 11:59:10;;;;;;;2.25;2.03;;;36.60;75.00;;;;;;4869242;29;20083;-77
2022/07/17 12:01:40;;;;;;;2.00;1.90;;;36.60;73.90;;;;;;4883728;29;20049;-76
2022/07/17 12:04:10;;;;;;;2.65;1.90;;;36.90;73.30;;;;;;4868126;29;20132;-75
2022/07/17 12:06:45;;;;;;;3.23;1.87;;;36.90;73.50;;;;;;4883490;29;20049;-77
2022/07/17 12:09:25;;;;;;;1.67;1.45;;;37.20;73.70;;;;;;4868732;29;20049;-78
2022/07/17 12:11:54;;;;;;;1.77;1.67;;;37.40;73.30;;;;;;4870501;29;20057;-78
2022/07/17 12:14:22;;;;;;;2.38;1.63;;;37.70;72.90;;;;;;4869118;29;20485;-77
2022/07/17 12:16:50;;;;;;;2.30;1.67;;;37.80;72.40;;;;;;4869214;29;20488;-78
2022/07/17 12:19:23;;;;;;;4.25;1.80;;;38.00;72.00;;;;;;4868501;29;20037;-77
2022/07/17 12:21:55;;;;;;;2.63;2.38;;;38.00;71.10;;;;;;4870128;29;20053;-76
2022/07/17 12:24:31;;;;;;;4.35;2.10;;;37.90;72.00;;;;;;4867208;29;20148;-76
2022/07/17 12:27:01;;;;;;;4.47;1.98;;;38.00;71.60;;;;;;4884236;29;20655;-76
2022/07/17 12:29:29;;;;;;;2.25;2.05;;;38.00;71.80;;;;;;4866197;29;20120;-77
2022/07/17 12:32:02;;;;;;;4.13;1.90;;;38.20;71.40;;;;;;4871430;29;20049;-76
2022/07/17 12:34:30;;;;;;;4.90;2.15;;;38.40;71.50;;;;;;4867789;29;20428;-77
2022/07/17 12:36:58;;;;;;;2.25;1.98;;;38.40;70.40;;;;;;4854421;29;20065;-77
2022/07/17 12:39:28;;;;;;;2.30;1.92;;;38.40;69.50;;;;;;4868024;29;20064;-76
2022/07/17 12:41:56;;;;;;;2.20;2.00;;;38.40;69.20;;;;;;4870977;29;20472;-76
2022/07/17 12:44:25;;;;;;;2.22;1.98;;;38.30;68.60;;;;;;4869202;29;20742;-76
2022/07/17 12:46:53;;;;;;;2.22;1.77;;;38.30;68.90;;;;;;4869059;29;20064;-74
2022/07/17 12:49:21;;;;;;;2.40;1.80;;;38.30;68.20;;;;;;4869136;29;20041;-74
2022/07/17 12:51:52;;;;;;;1.70;1.60;;;38.30;68.20;;;;;;4869424;29;20059;-74
2022/07/17 12:54:21;;;;;;;3.00;1.95;;;38.20;69.10;;;;;;4868313;29;20132;-75
2022/07/17 12:56:51;;;;;;;2.05;1.95;;;38.20;69.10;;;;;;4870373;29;20055;-74